createdAt,value
2018-06-12T00:00:29.234Z,80.87
2018-06-12T00:01:29.015Z,80.4
2018-06-12T00:02:43.949Z,80.97
2018-06-12T00:03:29.308Z,80.49
2018-06-12T00:04:29.348Z,80.87
2018-06-12T00:05:29.354Z,80.97
2018-06-12T00:06:29.380Z,81.54
2018-06-12T00:07:29.417Z,81.35
2018-06-12T00:08:29.485Z,81.26
2018-06-12T00:09:29.471Z,80.87
2018-06-12T00:10:29.474Z,80.58
2018-06-12T00:11:29.521Z,80.68
2018-06-12T00:13:29.645Z,80.87
2018-06-12T00:15:29.599Z,81.16
2018-06-12T00:16:29.636Z,81.16
2018-06-12T00:17:29.647Z,81.41
2018-06-12T00:18:29.688Z,80.93
2018-06-12T00:19:29.693Z,81.41
2018-06-12T00:20:29.712Z,81.51
2018-06-12T00:21:29.758Z,81.22
2018-06-12T00:22:29.502Z,81.98
2018-06-12T00:23:29.787Z,81.89
2018-06-12T00:24:29.809Z,81.79
2018-06-12T00:25:29.863Z,81.6
2018-06-12T00:26:29.873Z,81.7
2018-06-12T00:27:29.880Z,82.18
2018-06-12T00:28:29.918Z,82.27
2018-06-12T00:29:29.928Z,82.37
2018-06-12T00:31:29.973Z,82.94
2018-06-12T00:32:30.016Z,83.04
2018-06-12T00:33:30.042Z,83.04
2018-06-12T00:34:44.708Z,83.04
2018-06-12T00:35:29.821Z,83.71
2018-06-12T00:36:30.095Z,83.71
2018-06-12T00:37:30.137Z,83.91
2018-06-12T00:38:29.885Z,84.19
2018-06-12T00:39:30.185Z,84.38
2018-06-12T00:40:30.209Z,84.19
2018-06-12T00:41:30.213Z,84.67
2018-06-12T00:42:29.987Z,84.34
2018-06-12T00:44:30.300Z,84.82
2018-06-12T00:45:30.309Z,84.95
2018-06-12T00:47:30.355Z,85.25
2018-06-12T00:48:30.393Z,85.97
2018-06-12T00:49:30.420Z,85.97
2018-06-12T00:50:45.199Z,85.72
2018-06-12T00:51:30.451Z,85.78
2018-06-12T00:52:30.492Z,86.16
2018-06-12T00:53:30.496Z,86.35
2018-06-12T00:54:30.529Z,86.74
2018-06-12T00:55:30.544Z,86.54
2018-06-12T00:56:30.586Z,86.64
2018-06-12T00:57:30.610Z,86.45
2018-06-12T00:59:30.660Z,86.64
2018-06-12T01:00:30.667Z,86.93
2018-06-12T01:01:30.688Z,87.12
2018-06-12T01:02:30.723Z,87.12
2018-06-12T01:03:30.752Z,87.21
2018-06-12T01:04:30.773Z,87.41
2018-06-12T01:05:30.526Z,87.5
2018-06-12T01:06:45.468Z,87.5
2018-06-12T01:07:30.826Z,88.03
2018-06-12T01:08:30.885Z,87.84
2018-06-12T01:09:30.902Z,87.94
2018-06-12T01:10:30.914Z,88.42
2018-06-12T01:11:30.943Z,88.51
2018-06-12T01:12:30.943Z,88.51
2018-06-12T01:13:30.724Z,88.51
2018-06-12T01:15:31.032Z,89.28
2018-06-12T01:16:31.056Z,89.37
2018-06-12T01:17:31.060Z,89.09
2018-06-12T01:18:31.087Z,89.86
2018-06-12T01:19:31.127Z,90.14
2018-06-12T01:20:31.149Z,90.14
2018-06-12T01:21:31.172Z,90.05
2018-06-12T01:22:45.841Z,90.53
2018-06-12T01:23:31.225Z,90.33
2018-06-12T01:24:30.969Z,90.62
2018-06-12T01:25:31.267Z,90.53
2018-06-12T01:26:31.272Z,90.72
2018-06-12T01:27:31.314Z,91.1
2018-06-12T01:28:31.340Z,90.43
2018-06-12T01:29:31.349Z,90.81
2018-06-12T01:30:31.378Z,90.72
2018-06-12T01:31:31.396Z,91
2018-06-12T01:32:31.431Z,90.72
2018-06-12T01:33:31.447Z,90.91
2018-06-12T01:34:31.480Z,90.62
2018-06-12T01:35:31.497Z,91.39
2018-06-12T01:36:31.468Z,91.29
2018-06-12T01:37:46.193Z,91
2018-06-12T01:38:31.557Z,91.25
2018-06-12T01:39:31.595Z,91.15
2018-06-12T01:40:31.603Z,91.63
2018-06-12T01:41:31.638Z,91.44
2018-06-12T01:42:31.666Z,91.34
2018-06-12T01:43:31.669Z,91.72
2018-06-12T01:44:31.712Z,91.53
2018-06-12T01:45:31.737Z,91.92
2018-06-12T01:46:31.487Z,91.63
2018-06-12T01:47:31.814Z,91.53
2018-06-12T01:48:31.787Z,92.01
2018-06-12T01:49:31.831Z,91.92
2018-06-12T01:50:31.833Z,91.92
2018-06-12T01:51:31.876Z,92.01
2018-06-12T01:52:31.894Z,92.01
2018-06-12T01:53:31.922Z,91.92
2018-06-12T01:54:31.933Z,92.01
2018-06-12T01:55:31.695Z,91.92
2018-06-12T01:56:31.988Z,92.01
2018-06-12T01:57:32.015Z,91.92
2018-06-12T01:58:32.041Z,92.01
2018-06-12T01:59:31.785Z,91.44
2018-06-12T02:00:31.823Z,91.72
2018-06-12T02:01:32.092Z,91.63
2018-06-12T02:02:32.138Z,92.11
2018-06-12T02:05:32.202Z,92.87
2018-06-12T02:06:32.209Z,92.3
2018-06-12T02:07:32.245Z,92.58
2018-06-12T02:08:32.010Z,92.4
2018-06-12T02:09:46.942Z,92.4
2018-06-12T02:10:32.316Z,92.58
2018-06-12T02:11:32.325Z,92.68
2018-06-12T02:12:32.348Z,92.87
2018-06-12T02:13:32.386Z,93.26
2018-06-12T02:14:32.400Z,93.5
2018-06-12T02:15:32.435Z,93.74
2018-06-12T02:16:32.439Z,93.45
2018-06-12T02:17:32.220Z,93.35
2018-06-12T02:18:32.228Z,94.02
2018-06-12T02:19:32.527Z,93.98
2018-06-12T02:20:32.531Z,93.98
2018-06-12T02:22:32.596Z,94.21
2018-06-12T02:23:32.601Z,94.02
2018-06-12T02:24:32.383Z,94.4
2018-06-12T02:25:47.308Z,94.21
2018-06-12T02:26:32.676Z,94.55
2018-06-12T02:27:32.692Z,94.89
2018-06-12T02:28:32.733Z,94.6
2018-06-12T02:29:32.757Z,94.31
2018-06-12T02:30:32.765Z,94.02
2018-06-12T02:31:32.801Z,94.31
2018-06-12T02:32:32.810Z,93.74
2018-06-12T02:33:32.855Z,93.26
2018-06-12T02:35:32.637Z,93.35
2018-06-12T02:36:32.916Z,92.97
2018-06-12T02:37:32.668Z,92.3
2018-06-12T02:38:32.971Z,92.68
2018-06-12T02:39:32.989Z,92.01
2018-06-12T02:40:32.740Z,91.92
2018-06-12T02:41:47.678Z,91.15
2018-06-12T02:42:33.040Z,90.96
2018-06-12T02:43:33.082Z,90.09
2018-06-12T02:44:33.231Z,90.48
2018-06-12T02:45:33.133Z,90.29
2018-06-12T02:46:33.147Z,90.19
2018-06-12T02:47:33.185Z,90.58
2018-06-12T02:48:33.178Z,89.52
2018-06-12T02:49:33.211Z,89.9
2018-06-12T02:50:33.240Z,90
2018-06-12T02:51:33.312Z,90
2018-06-12T02:52:33.306Z,89.33
2018-06-12T02:53:33.295Z,89.14
2018-06-12T02:54:33.076Z,89.04
2018-06-12T02:55:33.353Z,88.56
2018-06-12T02:56:33.363Z,89.14
2018-06-12T02:57:48.054Z,89.23
2018-06-12T02:58:33.419Z,89.14
2018-06-12T02:59:33.190Z,88.18
2018-06-12T03:00:33.457Z,88.47
2018-06-12T03:01:33.509Z,89.04
2018-06-12T03:02:33.504Z,88.18
2018-06-12T03:03:33.556Z,88.37
2018-06-12T03:04:33.554Z,88.56
2018-06-12T03:05:33.571Z,88.09
2018-06-12T03:06:33.596Z,87.9
2018-06-12T03:07:33.634Z,87.41
2018-06-12T03:08:33.386Z,87.51
2018-06-12T03:09:33.694Z,87.23
2018-06-12T03:10:33.429Z,87.32
2018-06-12T03:11:33.731Z,87.32
2018-06-12T03:12:48.394Z,86.84
2018-06-12T03:14:33.807Z,86.74
2018-06-12T03:15:33.806Z,86.46
2018-06-12T03:16:33.861Z,86.94
2018-06-12T03:17:33.987Z,86.46
2018-06-12T03:18:33.876Z,86.27
2018-06-12T03:20:33.934Z,86.55
2018-06-12T03:21:33.944Z,85.88
2018-06-12T03:23:33.728Z,85.79
2018-06-12T03:24:34.036Z,85.88
2018-06-12T03:25:34.031Z,85.79
2018-06-12T03:26:34.080Z,85.31
2018-06-12T03:27:34.078Z,85.31
2018-06-12T03:28:34.119Z,85.41
2018-06-12T03:29:34.129Z,84.74
2018-06-12T03:30:34.165Z,85.21
2018-06-12T03:31:34.193Z,84.92
2018-06-12T03:32:34.194Z,84.3
2018-06-12T03:33:34.223Z,84.39
2018-06-12T03:34:34.261Z,84.39
2018-06-12T03:35:34.270Z,84.01
2018-06-12T03:36:34.304Z,84.3
2018-06-12T03:37:34.312Z,84.11
2018-06-12T03:38:34.351Z,84.2
2018-06-12T03:40:34.386Z,83.78
2018-06-12T03:41:34.428Z,83.63
2018-06-12T03:42:34.430Z,84.01
2018-06-12T03:43:34.467Z,83.92
2018-06-12T03:44:49.134Z,83.53
2018-06-12T03:45:34.251Z,83.44
2018-06-12T03:46:34.523Z,83.44
2018-06-12T03:47:34.541Z,83.44
2018-06-12T03:48:34.581Z,82.96
2018-06-12T03:49:34.593Z,82.96
2018-06-12T03:50:34.630Z,82.67
2018-06-12T03:51:34.634Z,82.76
2018-06-12T03:52:34.681Z,82.57
2018-06-12T03:53:34.681Z,82.48
2018-06-12T03:54:34.451Z,82.19
2018-06-12T03:55:34.732Z,82.29
2018-06-12T03:56:34.773Z,82.19
2018-06-12T03:57:34.837Z,82
2018-06-12T03:58:34.556Z,81.9
2018-06-12T03:59:34.568Z,81.13
2018-06-12T04:00:49.510Z,81.71
2018-06-12T04:01:34.881Z,81.43
2018-06-12T04:02:34.908Z,81.43
2018-06-12T04:03:34.924Z,82.06
2018-06-12T04:04:34.938Z,81.81
2018-06-12T04:05:34.982Z,81.43
2018-06-12T04:06:34.995Z,81.62
2018-06-12T04:07:35.035Z,82
2018-06-12T04:08:35.031Z,81.52
2018-06-12T04:09:35.073Z,81.62
2018-06-12T04:10:35.076Z,81.13
2018-06-12T04:11:35.104Z,79.07
2018-06-12T04:12:35.126Z,76.71
2018-06-12T04:13:35.171Z,74.83
2018-06-12T04:14:35.189Z,73.08
2018-06-12T04:15:35.207Z,69.89
2018-06-12T04:16:49.887Z,67.99
2018-06-12T04:17:35.245Z,67.71
2018-06-12T04:18:35.291Z,65.24
2018-06-12T04:19:35.298Z,65.85
2018-06-12T04:20:35.507Z,66.49
2018-06-12T04:21:35.360Z,67.51
2018-06-12T04:24:35.541Z,68.98
2018-06-12T04:25:35.453Z,69.66
2018-06-12T04:26:35.493Z,70.78
2018-06-12T04:28:35.529Z,71.64
2018-06-12T04:29:35.554Z,71.98
2018-06-12T04:30:35.591Z,71.22
2018-06-12T04:31:35.615Z,69.81
2018-06-12T04:32:50.284Z,68.51
2018-06-12T04:33:35.671Z,68.54
2018-06-12T04:34:35.672Z,68.44
2018-06-12T04:35:35.720Z,68.7
2018-06-12T04:36:35.725Z,68.51
2018-06-12T04:37:35.769Z,68.95
2018-06-12T04:38:35.793Z,70.36
2018-06-12T04:39:35.541Z,70.26
2018-06-12T04:40:35.576Z,70.87
2018-06-12T04:41:35.592Z,72.18
2018-06-12T04:42:35.891Z,71.98
2018-06-12T04:43:35.901Z,72.28
2018-06-12T04:45:35.966Z,73.04
2018-06-12T04:46:35.994Z,72.47
2018-06-12T04:47:50.661Z,72.66
2018-06-12T04:48:36.024Z,72.66
2018-06-12T04:49:36.067Z,72.81
2018-06-12T04:50:36.074Z,73.2
2018-06-12T04:51:36.113Z,73.97
2018-06-12T04:52:36.129Z,73.97
2018-06-12T04:53:36.147Z,73.3
2018-06-12T04:54:36.262Z,73.2
2018-06-12T04:55:36.215Z,73.87
2018-06-12T04:56:36.219Z,73.77
2018-06-12T04:58:36.271Z,73.77
2018-06-12T04:59:36.299Z,73.68
2018-06-12T05:00:36.318Z,73.39
2018-06-12T05:01:36.360Z,73.97
2018-06-12T05:02:36.385Z,73.87
2018-06-12T05:03:36.494Z,73.87
2018-06-12T05:04:36.417Z,73.39
2018-06-12T05:05:36.458Z,74.06
2018-06-12T05:06:36.464Z,73.3
2018-06-12T05:07:36.505Z,72.91
2018-06-12T05:08:36.255Z,72.95
2018-06-12T05:09:36.555Z,73.14
2018-06-12T05:10:36.360Z,72.63
2018-06-12T05:11:36.604Z,72.95
2018-06-12T05:12:36.630Z,72.85
2018-06-12T05:14:36.681Z,73.43
2018-06-12T05:15:36.684Z,72.18
2018-06-12T05:16:36.712Z,72.18
2018-06-12T05:17:36.735Z,73.04
2018-06-12T05:18:36.772Z,72.08
2018-06-12T05:19:51.445Z,72.08
2018-06-12T05:20:36.821Z,72.18
2018-06-12T05:22:36.870Z,72.18
2018-06-12T05:23:36.891Z,71.31
2018-06-12T05:24:36.908Z,71.16
2018-06-12T05:25:37.039Z,71.8
2018-06-12T05:26:36.952Z,71.89
2018-06-12T05:27:36.993Z,71.89
2018-06-12T05:28:37.006Z,71.35
2018-06-12T05:29:36.779Z,70.39
2018-06-12T05:30:37.054Z,70.49
2018-06-12T05:32:37.099Z,70.49
2018-06-12T05:33:37.127Z,71.35
2018-06-12T05:34:37.168Z,71.55
2018-06-12T05:35:51.834Z,71.55
2018-06-12T05:37:37.236Z,70.62
2018-06-12T05:38:37.264Z,69.37
2018-06-12T05:39:37.274Z,69.75
2018-06-12T05:40:37.293Z,69.85
2018-06-12T05:41:37.075Z,69.81
2018-06-12T05:42:37.351Z,68.6
2018-06-12T05:43:37.388Z,67.58
2018-06-12T05:44:37.397Z,67.42
2018-06-12T05:45:37.441Z,66.27
2018-06-12T05:46:37.448Z,65.43
2018-06-12T05:47:37.490Z,65.33
2018-06-12T05:48:37.497Z,64.86
2018-06-12T05:49:37.539Z,63.92
2018-06-12T05:50:37.291Z,62.35
2018-06-12T05:51:52.244Z,58.91
2018-06-12T05:52:37.601Z,57.35
2018-06-12T05:53:37.647Z,55.19
2018-06-12T05:54:37.412Z,53.28
2018-06-12T05:55:37.687Z,53.21
2018-06-12T05:56:37.728Z,54.51
2018-06-12T05:57:37.739Z,55.55
2018-06-12T05:58:37.786Z,55.62
2018-06-12T06:00:37.850Z,58.07
2018-06-12T06:02:37.880Z,60.3
2018-06-12T06:03:37.921Z,60.77
2018-06-12T06:04:37.937Z,62.57
2018-06-12T06:05:37.980Z,63.79
2018-06-12T06:06:37.992Z,61.35
2018-06-12T06:07:52.685Z,57.94
2018-06-12T06:08:38.064Z,55.07
2018-06-12T06:09:38.081Z,51.95
2018-06-12T06:10:38.261Z,49.51
2018-06-12T06:11:38.133Z,48.42
2018-06-12T06:12:38.181Z,49.77
2018-06-12T06:13:38.195Z,50.7
2018-06-12T06:14:38.221Z,50.79
2018-06-12T06:15:38.269Z,52.8
2018-06-12T06:16:38.279Z,52.51
2018-06-12T06:17:38.328Z,51.64
2018-06-12T06:18:38.341Z,51.76
2018-06-12T06:19:38.395Z,52.51
2018-06-12T06:20:38.401Z,52.73
2018-06-12T06:21:38.437Z,52.34
2018-06-12T06:22:53.128Z,53.57
2018-06-12T06:23:38.511Z,54.97
2018-06-12T06:24:38.543Z,56.56
2018-06-12T06:25:38.551Z,57.68
2018-06-12T06:26:38.594Z,57.52
2018-06-12T06:27:38.609Z,55.2
2018-06-12T06:29:38.699Z,53.02
2018-06-12T06:30:38.795Z,53.77
2018-06-12T06:31:38.737Z,54.77
2018-06-12T06:32:38.748Z,55.9
2018-06-12T06:33:38.795Z,57.42
2018-06-12T06:34:38.548Z,58.14
2018-06-12T06:35:38.839Z,58.62
2018-06-12T06:36:38.858Z,58.36
2018-06-12T06:37:38.911Z,59.2
2018-06-12T06:38:38.937Z,57.87
2018-06-12T06:39:38.689Z,57.78
2018-06-12T06:40:38.713Z,58.81
2018-06-12T06:41:38.753Z,59.36
2018-06-12T06:42:39.028Z,59.27
2018-06-12T06:43:39.069Z,59.17
2018-06-12T06:44:38.822Z,60.1
2018-06-12T06:45:39.124Z,60.68
2018-06-12T06:46:38.874Z,59.72
2018-06-12T06:47:39.192Z,59.62
2018-06-12T06:48:39.656Z,59.27
2018-06-12T06:50:39.253Z,58.2
2018-06-12T06:51:39.020Z,59.91
2018-06-12T06:52:39.316Z,59.97
2018-06-12T06:53:39.379Z,60.84
2018-06-12T06:54:54.012Z,61.52
2018-06-12T06:55:39.121Z,60.55
2018-06-12T06:56:39.401Z,60.07
2018-06-12T06:57:39.444Z,60.1
2018-06-12T06:58:39.469Z,60
2018-06-12T06:59:39.483Z,60.07
2018-06-12T07:00:39.518Z,59.43
2018-06-12T07:01:39.541Z,58.2
2018-06-12T07:02:39.577Z,57.75
2018-06-12T07:03:39.586Z,58.49
2018-06-12T07:04:39.628Z,57.92
2018-06-12T07:05:39.635Z,57.72
2018-06-12T07:06:39.680Z,59.65
2018-06-12T07:07:39.697Z,60.1
2018-06-12T07:08:39.730Z,60.1
2018-06-12T07:09:39.763Z,60.68
2018-06-12T07:10:54.430Z,59.72
2018-06-12T07:11:39.805Z,59.94
2018-06-12T07:12:39.838Z,59.07
2018-06-12T07:13:39.848Z,59.75
2018-06-12T07:14:39.891Z,59.81
2018-06-12T07:15:39.919Z,60.75
2018-06-12T07:16:39.928Z,60.36
2018-06-12T07:17:39.704Z,61.52
2018-06-12T07:18:39.979Z,61.04
2018-06-12T07:19:40.023Z,61.42
2018-06-12T07:21:40.077Z,60.55
2018-06-12T07:22:39.842Z,60.94
2018-06-12T07:23:40.113Z,59.52
2018-06-12T07:24:39.879Z,60.17
2018-06-12T07:25:39.903Z,60.27
2018-06-12T07:26:54.852Z,60.07
2018-06-12T07:27:39.954Z,60.07
2018-06-12T07:28:39.994Z,59.88
2018-06-12T07:29:40.264Z,58.63
2018-06-12T07:30:40.309Z,56.76
2018-06-12T07:31:40.059Z,56.76
2018-06-12T07:32:40.087Z,56.95
2018-06-12T07:33:40.128Z,56.49
2018-06-12T07:34:40.402Z,56.69
2018-06-12T07:35:40.174Z,56.98
2018-06-12T07:36:40.210Z,58.65
2018-06-12T07:39:40.546Z,57.89
2018-06-12T07:40:40.296Z,57.62
2018-06-12T07:41:40.653Z,57.34
2018-06-12T07:42:55.270Z,57.43
2018-06-12T07:43:40.655Z,58.59
2018-06-12T07:44:40.660Z,57.62
2018-06-12T07:45:40.705Z,57.62
2018-06-12T07:46:40.469Z,58.56
2018-06-12T07:47:40.526Z,57.24
2018-06-12T07:48:40.776Z,57.69
2018-06-12T07:49:40.791Z,57.02
2018-06-12T07:51:40.857Z,57.4
2018-06-12T07:53:40.651Z,57.69
2018-06-12T07:54:40.665Z,57.98
2018-06-12T07:55:40.708Z,57.05
2018-06-12T07:56:40.718Z,57.47
2018-06-12T07:57:55.668Z,57.18
2018-06-12T07:58:41.030Z,57.12
2018-06-12T08:00:40.869Z,55.31
2018-06-12T08:01:41.108Z,54.28
2018-06-12T08:03:41.159Z,54.47
2018-06-12T08:04:41.199Z,53.58
2018-06-12T08:05:41.241Z,53.05
2018-06-12T08:06:41.237Z,52.86
2018-06-12T08:07:41.265Z,52.47
2018-06-12T08:08:41.313Z,51.99
2018-06-12T08:09:41.325Z,52.95
2018-06-12T08:10:41.385Z,53.05
2018-06-12T08:11:41.374Z,52.67
2018-06-12T08:12:41.432Z,53.51
2018-06-12T08:13:41.435Z,53.96
2018-06-12T08:14:41.474Z,52.61
2018-06-12T08:15:41.483Z,51.05
2018-06-12T08:16:41.531Z,48.79
2018-06-12T08:17:41.568Z,45.78
2018-06-12T08:18:41.661Z,43.31
2018-06-12T08:19:41.608Z,43.45
2018-06-12T08:20:41.623Z,44.27
2018-06-12T08:21:41.669Z,45.76
2018-06-12T08:22:41.676Z,47.26
2018-06-12T08:23:41.725Z,48.01
2018-06-12T08:24:41.753Z,50.01
2018-06-12T08:25:41.782Z,50.28
2018-06-12T08:26:41.536Z,50.64
2018-06-12T08:27:41.822Z,50.35
2018-06-12T08:28:41.869Z,50.47
2018-06-12T08:29:56.663Z,48.37
2018-06-12T08:30:42.160Z,47.09
2018-06-12T08:31:41.953Z,46.05
2018-06-12T08:32:41.963Z,44.81
2018-06-12T08:33:42.008Z,44.35
2018-06-12T08:34:42.042Z,45.68
2018-06-12T08:35:42.176Z,45.98
2018-06-12T08:36:42.094Z,45.4
2018-06-12T08:38:42.147Z,43.89
2018-06-12T08:39:42.229Z,42.46
2018-06-12T08:40:42.201Z,42.67
2018-06-12T08:41:42.244Z,40.92
2018-06-12T08:42:41.996Z,40.39
2018-06-12T08:43:42.299Z,40.21
2018-06-12T08:44:42.317Z,39.7
2018-06-12T08:45:57.005Z,39.41
2018-06-12T08:46:42.392Z,40.85
2018-06-12T08:47:42.428Z,41.31
2018-06-12T08:48:42.450Z,42.34
2018-06-12T08:49:42.464Z,45.78
2018-06-12T08:50:42.243Z,47.33
2018-06-12T08:51:42.523Z,46.7
2018-06-12T08:52:42.571Z,45.86
2018-06-12T08:53:42.325Z,44.35
2018-06-12T08:54:42.628Z,43.13
2018-06-12T08:55:42.655Z,41.74
2018-06-12T08:56:42.676Z,41.92
2018-06-12T08:57:42.705Z,41.8
2018-06-12T08:58:42.748Z,40.92
2018-06-12T08:59:42.761Z,40.87
2018-06-12T09:00:42.809Z,40.73
2018-06-12T09:01:57.484Z,39.8
2018-06-12T09:02:42.921Z,39.84
2018-06-12T09:03:42.882Z,41.18
2018-06-12T09:04:42.671Z,41.06
2018-06-12T09:05:42.968Z,38.87
2018-06-12T09:06:42.974Z,39.45
2018-06-12T09:07:43.019Z,39.55
2018-06-12T09:08:43.036Z,40.67
2018-06-12T09:10:43.097Z,42.26
2018-06-12T09:11:43.123Z,43.79
2018-06-12T09:12:42.907Z,44.53
2018-06-12T09:13:43.203Z,45.86
2018-06-12T09:14:43.220Z,45.35
2018-06-12T09:15:43.246Z,44.72
2018-06-12T09:16:43.291Z,46.7
2018-06-12T09:17:57.967Z,48.18
2018-06-12T09:18:43.353Z,48.28
2018-06-12T09:19:43.364Z,48.95
2018-06-12T09:20:43.148Z,49.53
2018-06-12T09:21:43.422Z,48.59
2018-06-12T09:22:43.450Z,48.13
2018-06-12T09:23:43.492Z,47.94
2018-06-12T09:24:43.524Z,48.11
2018-06-12T09:25:43.541Z,48.03
2018-06-12T09:26:43.583Z,47.84
2018-06-12T09:27:43.600Z,47.11
2018-06-12T09:28:43.640Z,47.38
2018-06-12T09:29:43.651Z,46.9
2018-06-12T09:30:43.698Z,46.73
2018-06-12T09:31:43.453Z,47.09
2018-06-12T09:32:58.401Z,48.39
2018-06-12T09:33:43.782Z,49.07
2018-06-12T09:34:43.815Z,49.07
2018-06-12T09:35:43.846Z,48.81
2018-06-12T09:36:43.856Z,48.69
2018-06-12T09:37:43.911Z,47.26
2018-06-12T09:38:43.908Z,45.37
2018-06-12T09:39:43.954Z,44.33
2018-06-12T09:40:43.968Z,42.24
2018-06-12T09:41:44.010Z,42.75
2018-06-12T09:42:44.046Z,42.63
2018-06-12T09:43:44.056Z,42.48
2018-06-12T09:44:44.083Z,40.09
2018-06-12T09:45:44.111Z,41.24
2018-06-12T09:46:44.156Z,41.53
2018-06-12T09:47:44.176Z,40.77
2018-06-12T09:48:44.215Z,40.85
2018-06-12T09:49:44.239Z,41.05
2018-06-12T09:50:44.278Z,40.11
2018-06-12T09:51:44.283Z,38.96
2018-06-12T09:52:44.334Z,37.18
2018-06-12T09:53:44.343Z,36.71
2018-06-12T09:54:44.387Z,35.86
2018-06-12T09:55:44.401Z,36.02
2018-06-12T09:56:44.453Z,35.93
2018-06-12T09:57:44.556Z,36.32
2018-06-12T09:58:44.514Z,36.69
2018-06-12T10:00:44.554Z,34.99
2018-06-12T10:01:44.596Z,35.96
2018-06-12T10:02:44.615Z,36.41
2018-06-12T10:03:44.662Z,36.96
2018-06-12T10:04:59.335Z,38.32
2018-06-12T10:05:44.725Z,39.03
2018-06-12T10:06:44.748Z,39.98
2018-06-12T10:07:44.766Z,40.71
2018-06-12T10:08:44.808Z,41
2018-06-12T10:09:44.825Z,41.24
2018-06-12T10:10:44.601Z,41.41
2018-06-12T10:11:44.628Z,43.65
2018-06-12T10:12:44.929Z,44.31
2018-06-12T10:13:44.960Z,45.4
2018-06-12T10:14:45.077Z,44.62
2018-06-12T10:15:45.006Z,43.87
2018-06-12T10:16:45.035Z,41.74
2018-06-12T10:17:45.079Z,42.34
2018-06-12T10:18:44.886Z,42.11
2018-06-12T10:19:45.136Z,40.31
2018-06-12T10:20:59.811Z,40.29
2018-06-12T10:21:45.191Z,40.17
2018-06-12T10:22:45.225Z,40.75
2018-06-12T10:24:45.271Z,43.12
2018-06-12T10:25:45.311Z,43.29
2018-06-12T10:26:45.073Z,43.21
2018-06-12T10:27:45.357Z,43.31
2018-06-12T10:28:45.125Z,43.6
2018-06-12T10:29:45.427Z,43.48
2018-06-12T10:30:45.457Z,44.4
2018-06-12T10:31:45.469Z,43.55
2018-06-12T10:32:45.516Z,43.58
2018-06-12T10:33:45.530Z,43.41
2018-06-12T10:34:45.298Z,42.48
2018-06-12T10:35:45.603Z,40.73
2018-06-12T10:37:00.276Z,42.77
2018-06-12T10:37:45.647Z,43.31
2018-06-12T10:39:45.705Z,44.26
2018-06-12T10:40:45.748Z,43.19
2018-06-12T10:41:45.770Z,43.7
2018-06-12T10:42:45.810Z,43.68
2018-06-12T10:43:45.991Z,43.58
2018-06-12T10:44:45.848Z,45.13
2018-06-12T10:45:45.876Z,46.34
2018-06-12T10:46:45.659Z,47.09
2018-06-12T10:47:45.933Z,48.79
2018-06-12T10:49:45.731Z,48.3
2018-06-12T10:50:46.036Z,49.27
2018-06-12T10:51:46.058Z,49
2018-06-12T10:53:00.741Z,47.99
2018-06-12T10:53:46.108Z,46.19
2018-06-12T10:54:46.133Z,45.71
2018-06-12T10:55:45.916Z,45.01
2018-06-12T10:56:46.199Z,45.2
2018-06-12T10:57:45.973Z,46.9
2018-06-12T10:58:45.988Z,47.19
2018-06-12T10:59:46.029Z,47.58
2018-06-12T11:01:46.074Z,45.95
2018-06-12T11:03:46.389Z,45.86
2018-06-12T11:04:46.419Z,46.53
2018-06-12T11:05:46.188Z,47.21
2018-06-12T11:06:46.477Z,46.08
2018-06-12T11:08:01.164Z,45.32
2018-06-12T11:08:46.533Z,44.16
2018-06-12T11:09:46.557Z,45.22
2018-06-12T11:10:46.613Z,45.1
2018-06-12T11:12:46.660Z,43.96
2018-06-12T11:13:46.672Z,44.64
2018-06-12T11:14:46.699Z,44.06
2018-06-12T11:15:46.469Z,43.55
2018-06-12T11:16:46.758Z,44.04
2018-06-12T11:17:46.781Z,44.64
2018-06-12T11:18:46.811Z,44.1
2018-06-12T11:19:46.842Z,43.23
2018-06-12T11:20:46.957Z,42.77
2018-06-12T11:21:46.897Z,42.65
2018-06-12T11:22:46.926Z,43.41
2018-06-12T11:23:46.958Z,44.27
2018-06-12T11:24:46.981Z,44.16
2018-06-12T11:25:47.009Z,43.68
2018-06-12T11:26:47.039Z,45.42
2018-06-12T11:27:46.807Z,46.61
2018-06-12T11:28:47.093Z,45.93
2018-06-12T11:29:46.864Z,46.97
2018-06-12T11:30:47.150Z,46.88
2018-06-12T11:31:46.924Z,47.28
2018-06-12T11:32:47.205Z,46.25
2018-06-12T11:34:47.003Z,46.66
2018-06-12T11:35:47.290Z,47.14
2018-06-12T11:36:47.319Z,47.89
2018-06-12T11:37:47.344Z,48.74
2018-06-12T11:38:47.372Z,48.83
2018-06-12T11:40:02.062Z,49.9
2018-06-12T11:40:47.428Z,50.38
2018-06-12T11:41:47.454Z,48.86
2018-06-12T11:42:47.483Z,48.76
2018-06-12T11:43:47.507Z,49.32
2018-06-12T11:44:47.534Z,48.86
2018-06-12T11:45:47.562Z,49.82
2018-06-12T11:46:47.332Z,49.73
2018-06-12T11:47:47.360Z,48.88
2018-06-12T11:50:47.698Z,48.97
2018-06-12T11:51:47.730Z,48.66
2018-06-12T11:52:47.751Z,49.92
2018-06-12T11:53:47.789Z,49.24
2018-06-12T11:54:47.807Z,49.53
2018-06-12T11:56:02.496Z,49.05
2018-06-12T11:56:47.865Z,48.59
2018-06-12T11:57:47.886Z,48.79
2018-06-12T11:58:47.913Z,47.26
2018-06-12T11:59:47.952Z,47.53
2018-06-12T12:00:47.969Z,47.05
2018-06-12T12:02:48.022Z,47.24
2018-06-12T12:03:48.048Z,47.63
2018-06-12T12:04:48.071Z,47.91
2018-06-12T12:06:48.127Z,48.61
2018-06-12T12:07:48.154Z,47.19
2018-06-12T12:08:47.923Z,46.92
2018-06-12T12:09:48.207Z,46.03
2018-06-12T12:10:48.234Z,46.97
2018-06-12T12:12:02.923Z,47.65
2018-06-12T12:12:48.030Z,46.7
2018-06-12T12:13:48.317Z,46.61
2018-06-12T12:14:48.084Z,46.32
2018-06-12T12:15:48.371Z,46.22
2018-06-12T12:16:48.141Z,45.95
2018-06-12T12:17:48.422Z,46.05
2018-06-12T12:19:48.481Z,45.59
2018-06-12T12:20:48.502Z,46.15
2018-06-12T12:23:48.594Z,46.53
2018-06-12T12:24:48.611Z,45.78
2018-06-12T12:25:48.380Z,45.22
2018-06-12T12:26:48.661Z,44.84
2018-06-12T12:28:03.351Z,45.03
2018-06-12T12:28:48.834Z,44.93
2018-06-12T12:29:48.744Z,44.45
2018-06-12T12:30:48.772Z,45.71
2018-06-12T12:31:48.804Z,45.13
2018-06-12T12:32:48.825Z,45.32
2018-06-12T12:33:48.851Z,46.17
2018-06-12T12:36:48.939Z,45.66
2018-06-12T12:37:48.960Z,45.66
2018-06-12T12:39:49.014Z,45.68
2018-06-12T12:40:48.783Z,45.4
2018-06-12T12:41:49.072Z,44.53
2018-06-12T12:43:03.756Z,44.53
2018-06-12T12:43:48.864Z,44.62
2018-06-12T12:44:49.150Z,44.98
2018-06-12T12:45:49.174Z,44.79
2018-06-12T12:46:49.210Z,44.31
2018-06-12T12:47:49.229Z,44.21
2018-06-12T12:48:49.262Z,45.37
2018-06-12T12:49:49.283Z,44.57
2018-06-12T12:50:49.309Z,45.62
2018-06-12T12:51:49.337Z,46.1
2018-06-12T12:52:49.361Z,45.74
2018-06-12T12:53:49.393Z,45.35
2018-06-12T12:54:49.423Z,45.42
2018-06-12T12:55:49.452Z,46.2
2018-06-12T12:56:49.473Z,46.61
2018-06-12T12:57:49.538Z,46.22
2018-06-12T12:58:49.528Z,45.28
2018-06-12T13:00:49.322Z,45.25
2018-06-12T13:01:49.608Z,45.06
2018-06-12T13:02:49.635Z,45.14
2018-06-12T13:03:49.761Z,46
2018-06-12T13:04:49.693Z,45.06
2018-06-12T13:05:49.717Z,46.12
2018-06-12T13:06:49.483Z,45.64
2018-06-12T13:07:49.768Z,44.31
2018-06-12T13:09:49.931Z,44.43
2018-06-12T13:10:49.846Z,43.95
2018-06-12T13:11:49.874Z,45.08
2018-06-12T13:12:49.901Z,46.39
2018-06-12T13:13:49.957Z,46.95
2018-06-12T13:15:04.616Z,47.24
2018-06-12T13:15:49.979Z,46.88
2018-06-12T13:16:50.010Z,46.88
2018-06-12T13:17:50.039Z,46.78
2018-06-12T13:18:49.803Z,46.51
2018-06-12T13:19:50.095Z,47.33
2018-06-12T13:20:50.123Z,47.26
2018-06-12T13:21:50.149Z,47.16
2018-06-12T13:23:50.195Z,46.7
2018-06-12T13:24:50.224Z,46.92
2018-06-12T13:25:50.252Z,46.15
2018-06-12T13:26:50.275Z,46.97
2018-06-12T13:27:50.307Z,48.13
2018-06-12T13:28:50.072Z,47.38
2018-06-12T13:29:50.354Z,47.19
2018-06-12T13:31:05.042Z,46.83
2018-06-12T13:31:50.411Z,46.53
2018-06-12T13:32:50.435Z,46.61
2018-06-12T13:34:50.487Z,47.16
2018-06-12T13:35:50.515Z,48.3
2018-06-12T13:36:50.542Z,48.3
2018-06-12T13:37:50.316Z,48.79
2018-06-12T13:40:50.649Z,48.97
2018-06-12T13:41:50.674Z,48.3
2018-06-12T13:42:50.701Z,47.81
2018-06-12T13:43:50.470Z,48.01
2018-06-12T13:44:50.754Z,48.39
2018-06-12T13:45:50.786Z,47.53
2018-06-12T13:47:05.473Z,47.16
2018-06-12T13:47:50.834Z,47.28
2018-06-12T13:48:50.603Z,46.51
2018-06-12T13:49:50.889Z,46.63
2018-06-12T13:50:50.919Z,45.47
2018-06-12T13:51:50.938Z,46.73
2018-06-12T13:52:50.969Z,45.76
2018-06-12T13:53:50.992Z,45.2
2018-06-12T13:54:51.132Z,45.1
2018-06-12T13:55:50.789Z,44.64
2018-06-12T13:56:51.073Z,45.01